sensor_id;sensor_type;location;lat;lon;timestamp;temperature;humidity
80426;DHT22;69766;51.476;5.704;2023-06-19T00:00:08;22.40;65.60
80426;DHT22;69766;51.476;5.704;2023-06-19T00:02:41;22.40;65.60
80426;DHT22;69766;51.476;5.704;2023-06-19T00:05:08;22.40;65.40
80426;DHT22;69766;51.476;5.704;2023-06-19T00:07:35;22.40;65.50
80426;DHT22;69766;51.476;5.704;2023-06-19T00:10:01;22.30;65.50
80426;DHT22;69766;51.476;5.704;2023-06-19T00:12:27;22.30;65.50
80426;DHT22;69766;51.476;5.704;2023-06-19T00:14:52;22.30;65.70
80426;DHT22;69766;51.476;5.704;2023-06-19T00:17:18;22.30;65.90
80426;DHT22;69766;51.476;5.704;2023-06-19T00:19:44;22.30;66.00
80426;DHT22;69766;51.476;5.704;2023-06-19T00:22:09;22.30;66.00
80426;DHT22;69766;51.476;5.704;2023-06-19T00:24:35;22.30;65.90
80426;DHT22;69766;51.476;5.704;2023-06-19T00:27:01;22.20;66.10
80426;DHT22;69766;51.476;5.704;2023-06-19T00:29:29;22.20;66.50
80426;DHT22;69766;51.476;5.704;2023-06-19T00:31:55;22.20;66.60
80426;DHT22;69766;51.476;5.704;2023-06-19T00:34:20;22.10;67.10
80426;DHT22;69766;51.476;5.704;2023-06-19T00:36:52;22.10;66.40
80426;DHT22;69766;51.476;5.704;2023-06-19T00:39:25;22.10;66.50
80426;DHT22;69766;51.476;5.704;2023-06-19T00:41:54;22.00;66.80
80426;DHT22;69766;51.476;5.704;2023-06-19T00:44:20;21.90;67.00
80426;DHT22;69766;51.476;5.704;2023-06-19T00:46:46;21.90;67.20
80426;DHT22;69766;51.476;5.704;2023-06-19T00:49:13;21.80;67.60
80426;DHT22;69766;51.476;5.704;2023-06-19T00:51:40;21.70;67.70
80426;DHT22;69766;51.476;5.704;2023-06-19T00:54:06;21.70;67.70
80426;DHT22;69766;51.476;5.704;2023-06-19T00:56:32;21.70;68.00
80426;DHT22;69766;51.476;5.704;2023-06-19T00:59:00;21.60;67.80
80426;DHT22;69766;51.476;5.704;2023-06-19T01:01:26;21.60;67.90
80426;DHT22;69766;51.476;5.704;2023-06-19T01:03:52;21.50;68.10
80426;DHT22;69766;51.476;5.704;2023-06-19T01:06:25;21.50;68.20
80426;DHT22;69766;51.476;5.704;2023-06-19T01:09:02;21.40;68.40
80426;DHT22;69766;51.476;5.704;2023-06-19T01:11:37;21.30;68.50
80426;DHT22;69766;51.476;5.704;2023-06-19T01:14:17;21.40;68.10
80426;DHT22;69766;51.476;5.704;2023-06-19T01:16:45;21.30;68.00
80426;DHT22;69766;51.476;5.704;2023-06-19T01:19:16;21.30;69.00
80426;DHT22;69766;51.476;5.704;2023-06-19T01:21:43;21.30;68.40
80426;DHT22;69766;51.476;5.704;2023-06-19T01:24:09;21.30;68.20
80426;DHT22;69766;51.476;5.704;2023-06-19T01:26:35;21.20;68.40
80426;DHT22;69766;51.476;5.704;2023-06-19T01:29:00;21.20;68.60
80426;DHT22;69766;51.476;5.704;2023-06-19T01:34:10;21.00;69.30
80426;DHT22;69766;51.476;5.704;2023-06-19T01:36:37;20.90;69.60
80426;DHT22;69766;51.476;5.704;2023-06-19T01:39:04;20.90;70.30
80426;DHT22;69766;51.476;5.704;2023-06-19T01:41:32;20.90;70.90
80426;DHT22;69766;51.476;5.704;2023-06-19T01:43:58;20.80;71.90
80426;DHT22;69766;51.476;5.704;2023-06-19T01:46:24;20.70;72.80
80426;DHT22;69766;51.476;5.704;2023-06-19T01:48:50;20.70;73.80
80426;DHT22;69766;51.476;5.704;2023-06-19T01:51:17;20.60;74.50
80426;DHT22;69766;51.476;5.704;2023-06-19T01:53:42;20.50;75.30
80426;DHT22;69766;51.476;5.704;2023-06-19T01:56:08;20.40;75.70
80426;DHT22;69766;51.476;5.704;2023-06-19T01:58:34;20.30;76.40
80426;DHT22;69766;51.476;5.704;2023-06-19T02:00:59;20.30;76.80
80426;DHT22;69766;51.476;5.704;2023-06-19T02:03:25;20.20;77.40
80426;DHT22;69766;51.476;5.704;2023-06-19T02:05:51;20.10;78.10
80426;DHT22;69766;51.476;5.704;2023-06-19T02:08:16;20.10;78.40
80426;DHT22;69766;51.476;5.704;2023-06-19T02:10:42;20.00;78.70
80426;DHT22;69766;51.476;5.704;2023-06-19T02:13:08;19.90;79.30
80426;DHT22;69766;51.476;5.704;2023-06-19T02:15:36;19.90;79.40
80426;DHT22;69766;51.476;5.704;2023-06-19T02:18:04;19.80;79.90
80426;DHT22;69766;51.476;5.704;2023-06-19T02:20:30;19.80;80.30
80426;DHT22;69766;51.476;5.704;2023-06-19T02:22:56;19.70;80.90
80426;DHT22;69766;51.476;5.704;2023-06-19T02:25:21;19.70;81.70
80426;DHT22;69766;51.476;5.704;2023-06-19T02:27:47;19.60;82.60
80426;DHT22;69766;51.476;5.704;2023-06-19T02:30:13;19.60;83.00
80426;DHT22;69766;51.476;5.704;2023-06-19T02:32:39;19.60;83.20
80426;DHT22;69766;51.476;5.704;2023-06-19T02:35:06;19.70;83.30
80426;DHT22;69766;51.476;5.704;2023-06-19T02:37:34;19.70;83.50
80426;DHT22;69766;51.476;5.704;2023-06-19T02:40:05;19.60;83.80
80426;DHT22;69766;51.476;5.704;2023-06-19T02:42:32;19.60;84.00
80426;DHT22;69766;51.476;5.704;2023-06-19T02:44:58;19.60;84.10
80426;DHT22;69766;51.476;5.704;2023-06-19T02:47:31;19.70;84.00
80426;DHT22;69766;51.476;5.704;2023-06-19T02:50:01;19.60;84.00
80426;DHT22;69766;51.476;5.704;2023-06-19T02:52:28;19.50;84.40
80426;DHT22;69766;51.476;5.704;2023-06-19T02:54:54;19.40;84.70
80426;DHT22;69766;51.476;5.704;2023-06-19T02:57:19;19.40;85.40
80426;DHT22;69766;51.476;5.704;2023-06-19T02:59:45;19.30;86.20
80426;DHT22;69766;51.476;5.704;2023-06-19T03:02:11;19.20;86.50
80426;DHT22;69766;51.476;5.704;2023-06-19T03:04:37;19.10;87.00
80426;DHT22;69766;51.476;5.704;2023-06-19T03:07:03;19.00;87.40
80426;DHT22;69766;51.476;5.704;2023-06-19T03:09:28;19.00;88.00
80426;DHT22;69766;51.476;5.704;2023-06-19T03:11:54;19.00;87.90
80426;DHT22;69766;51.476;5.704;2023-06-19T03:14:20;19.00;88.00
80426;DHT22;69766;51.476;5.704;2023-06-19T03:16:45;19.00;88.20
80426;DHT22;69766;51.476;5.704;2023-06-19T03:19:11;18.90;88.60
80426;DHT22;69766;51.476;5.704;2023-06-19T03:21:37;18.80;89.20
80426;DHT22;69766;51.476;5.704;2023-06-19T03:24:03;18.70;89.60
80426;DHT22;69766;51.476;5.704;2023-06-19T03:26:29;18.80;89.80
80426;DHT22;69766;51.476;5.704;2023-06-19T03:28:55;18.80;89.50
80426;DHT22;69766;51.476;5.704;2023-06-19T03:31:21;18.70;89.80
80426;DHT22;69766;51.476;5.704;2023-06-19T03:33:46;18.70;90.20
80426;DHT22;69766;51.476;5.704;2023-06-19T03:36:12;18.70;90.40
80426;DHT22;69766;51.476;5.704;2023-06-19T03:38:38;18.80;90.20
80426;DHT22;69766;51.476;5.704;2023-06-19T03:41:03;18.80;90.30
80426;DHT22;69766;51.476;5.704;2023-06-19T03:43:29;18.80;90.40
80426;DHT22;69766;51.476;5.704;2023-06-19T03:45:54;18.90;90.40
80426;DHT22;69766;51.476;5.704;2023-06-19T03:48:20;18.80;90.50
80426;DHT22;69766;51.476;5.704;2023-06-19T03:50:46;18.90;90.50
80426;DHT22;69766;51.476;5.704;2023-06-19T03:53:11;18.90;90.50
80426;DHT22;69766;51.476;5.704;2023-06-19T03:55:37;18.90;90.30
80426;DHT22;69766;51.476;5.704;2023-06-19T03:58:03;18.90;90.40
80426;DHT22;69766;51.476;5.704;2023-06-19T04:00:29;19.00;90.30
80426;DHT22;69766;51.476;5.704;2023-06-19T04:02:54;19.00;90.20
80426;DHT22;69766;51.476;5.704;2023-06-19T04:05:20;19.00;90.30
80426;DHT22;69766;51.476;5.704;2023-06-19T04:07:47;19.00;90.50
80426;DHT22;69766;51.476;5.704;2023-06-19T04:10:12;18.90;90.60
80426;DHT22;69766;51.476;5.704;2023-06-19T04:12:38;18.90;90.80
80426;DHT22;69766;51.476;5.704;2023-06-19T04:15:06;19.00;90.60
80426;DHT22;69766;51.476;5.704;2023-06-19T04:17:32;19.10;90.50
80426;DHT22;69766;51.476;5.704;2023-06-19T04:19:58;19.20;90.40
80426;DHT22;69766;51.476;5.704;2023-06-19T04:22:23;19.20;90.30
80426;DHT22;69766;51.476;5.704;2023-06-19T04:24:49;19.20;90.40
80426;DHT22;69766;51.476;5.704;2023-06-19T04:27:14;19.20;90.40
80426;DHT22;69766;51.476;5.704;2023-06-19T04:29:40;19.30;90.30
80426;DHT22;69766;51.476;5.704;2023-06-19T04:32:06;19.30;90.20
80426;DHT22;69766;51.476;5.704;2023-06-19T04:34:38;19.30;90.30
80426;DHT22;69766;51.476;5.704;2023-06-19T04:37:04;19.40;90.20
80426;DHT22;69766;51.476;5.704;2023-06-19T04:39:30;19.40;90.20
80426;DHT22;69766;51.476;5.704;2023-06-19T04:41:55;19.40;90.20
80426;DHT22;69766;51.476;5.704;2023-06-19T04:44:21;19.50;90.20
80426;DHT22;69766;51.476;5.704;2023-06-19T04:46:47;19.40;90.30
80426;DHT22;69766;51.476;5.704;2023-06-19T04:49:15;19.40;90.20
80426;DHT22;69766;51.476;5.704;2023-06-19T04:51:41;19.40;90.50
80426;DHT22;69766;51.476;5.704;2023-06-19T04:54:07;19.50;90.20
80426;DHT22;69766;51.476;5.704;2023-06-19T04:56:33;19.60;90.00
80426;DHT22;69766;51.476;5.704;2023-06-19T04:58:58;19.50;90.10
80426;DHT22;69766;51.476;5.704;2023-06-19T05:01:26;19.50;90.10
80426;DHT22;69766;51.476;5.704;2023-06-19T05:03:56;19.60;90.00
80426;DHT22;69766;51.476;5.704;2023-06-19T05:06:24;19.60;90.00
80426;DHT22;69766;51.476;5.704;2023-06-19T05:08:50;19.70;89.90
80426;DHT22;69766;51.476;5.704;2023-06-19T05:11:16;19.60;90.00
80426;DHT22;69766;51.476;5.704;2023-06-19T05:13:42;19.60;90.10
80426;DHT22;69766;51.476;5.704;2023-06-19T05:16:07;19.70;90.00
80426;DHT22;69766;51.476;5.704;2023-06-19T05:18:33;19.80;89.50
80426;DHT22;69766;51.476;5.704;2023-06-19T05:20:59;19.80;89.50
80426;DHT22;69766;51.476;5.704;2023-06-19T05:23:24;19.90;89.40
80426;DHT22;69766;51.476;5.704;2023-06-19T05:25:50;19.90;89.10
80426;DHT22;69766;51.476;5.704;2023-06-19T05:28:16;20.00;89.10
80426;DHT22;69766;51.476;5.704;2023-06-19T05:30:41;20.10;88.50
80426;DHT22;69766;51.476;5.704;2023-06-19T05:33:07;20.20;88.10
80426;DHT22;69766;51.476;5.704;2023-06-19T05:35:33;20.10;88.20
80426;DHT22;69766;51.476;5.704;2023-06-19T05:37:58;20.10;88.60
80426;DHT22;69766;51.476;5.704;2023-06-19T05:40:24;20.10;88.60
80426;DHT22;69766;51.476;5.704;2023-06-19T05:42:50;20.20;88.00
80426;DHT22;69766;51.476;5.704;2023-06-19T05:45:16;20.20;88.30
80426;DHT22;69766;51.476;5.704;2023-06-19T05:47:42;20.10;88.40
80426;DHT22;69766;51.476;5.704;2023-06-19T05:50:08;20.10;88.30
80426;DHT22;69766;51.476;5.704;2023-06-19T05:52:33;20.10;88.60
80426;DHT22;69766;51.476;5.704;2023-06-19T05:54:59;20.20;88.20
80426;DHT22;69766;51.476;5.704;2023-06-19T05:57:26;20.30;87.50
80426;DHT22;69766;51.476;5.704;2023-06-19T05:59:51;20.30;87.10
80426;DHT22;69766;51.476;5.704;2023-06-19T06:02:19;20.20;87.30
80426;DHT22;69766;51.476;5.704;2023-06-19T06:04:45;20.30;87.90
80426;DHT22;69766;51.476;5.704;2023-06-19T06:07:11;20.40;87.30
80426;DHT22;69766;51.476;5.704;2023-06-19T06:09:36;20.40;87.00
80426;DHT22;69766;51.476;5.704;2023-06-19T06:12:03;20.30;86.90
80426;DHT22;69766;51.476;5.704;2023-06-19T06:14:29;20.30;87.60
80426;DHT22;69766;51.476;5.704;2023-06-19T06:16:54;20.20;87.60
80426;DHT22;69766;51.476;5.704;2023-06-19T06:19:20;20.10;88.30
80426;DHT22;69766;51.476;5.704;2023-06-19T06:21:49;20.00;88.90
80426;DHT22;69766;51.476;5.704;2023-06-19T06:24:15;20.00;89.50
80426;DHT22;69766;51.476;5.704;2023-06-19T06:26:41;20.00;89.10
80426;DHT22;69766;51.476;5.704;2023-06-19T06:29:07;20.10;88.60
80426;DHT22;69766;51.476;5.704;2023-06-19T06:31:33;20.20;88.20
80426;DHT22;69766;51.476;5.704;2023-06-19T06:33:59;20.20;88.00
80426;DHT22;69766;51.476;5.704;2023-06-19T06:36:25;20.40;87.60
80426;DHT22;69766;51.476;5.704;2023-06-19T06:38:51;20.60;84.20
80426;DHT22;69766;51.476;5.704;2023-06-19T06:41:16;21.10;82.40
80426;DHT22;69766;51.476;5.704;2023-06-19T06:43:42;21.70;78.90
80426;DHT22;69766;51.476;5.704;2023-06-19T06:46:09;21.90;77.90
80426;DHT22;69766;51.476;5.704;2023-06-19T06:48:38;22.20;77.20
80426;DHT22;69766;51.476;5.704;2023-06-19T06:51:05;22.50;74.80
80426;DHT22;69766;51.476;5.704;2023-06-19T06:53:30;22.60;74.30
80426;DHT22;69766;51.476;5.704;2023-06-19T06:55:59;22.30;74.10
80426;DHT22;69766;51.476;5.704;2023-06-19T06:58:26;22.20;74.40
80426;DHT22;69766;51.476;5.704;2023-06-19T07:00:52;22.40;73.10
80426;DHT22;69766;51.476;5.704;2023-06-19T07:03:18;22.70;70.90
80426;DHT22;69766;51.476;5.704;2023-06-19T07:05:44;22.30;72.10
80426;DHT22;69766;51.476;5.704;2023-06-19T07:08:10;22.00;72.80
80426;DHT22;69766;51.476;5.704;2023-06-19T07:10:36;22.30;73.00
80426;DHT22;69766;51.476;5.704;2023-06-19T07:13:02;23.20;68.90
80426;DHT22;69766;51.476;5.704;2023-06-19T07:15:27;23.80;66.50
80426;DHT22;69766;51.476;5.704;2023-06-19T07:17:53;24.10;66.10
80426;DHT22;69766;51.476;5.704;2023-06-19T07:20:19;24.30;64.80
80426;DHT22;69766;51.476;5.704;2023-06-19T07:22:45;24.20;65.00
80426;DHT22;69766;51.476;5.704;2023-06-19T07:25:11;24.30;64.90
80426;DHT22;69766;51.476;5.704;2023-06-19T07:27:38;24.80;63.00
80426;DHT22;69766;51.476;5.704;2023-06-19T07:30:04;25.50;61.10
80426;DHT22;69766;51.476;5.704;2023-06-19T07:32:30;25.60;60.10
80426;DHT22;69766;51.476;5.704;2023-06-19T07:34:55;25.60;60.30
80426;DHT22;69766;51.476;5.704;2023-06-19T07:37:21;25.80;58.60
80426;DHT22;69766;51.476;5.704;2023-06-19T07:39:48;24.90;59.60
80426;DHT22;69766;51.476;5.704;2023-06-19T07:42:16;24.20;62.20
80426;DHT22;69766;51.476;5.704;2023-06-19T07:44:42;24.00;63.70
80426;DHT22;69766;51.476;5.704;2023-06-19T07:47:08;24.30;61.50
80426;DHT22;69766;51.476;5.704;2023-06-19T07:49:34;24.10;63.10
80426;DHT22;69766;51.476;5.704;2023-06-19T07:52:00;24.20;61.90
80426;DHT22;69766;51.476;5.704;2023-06-19T07:54:25;24.50;61.10
80426;DHT22;69766;51.476;5.704;2023-06-19T07:56:51;24.50;61.50
80426;DHT22;69766;51.476;5.704;2023-06-19T07:59:17;24.40;60.50
80426;DHT22;69766;51.476;5.704;2023-06-19T08:01:43;25.10;59.30
80426;DHT22;69766;51.476;5.704;2023-06-19T08:04:09;25.90;57.80
80426;DHT22;69766;51.476;5.704;2023-06-19T08:06:35;26.80;55.50
80426;DHT22;69766;51.476;5.704;2023-06-19T08:09:01;27.20;54.30
80426;DHT22;69766;51.476;5.704;2023-06-19T08:11:26;27.20;52.30
80426;DHT22;69766;51.476;5.704;2023-06-19T08:13:52;27.20;52.90
80426;DHT22;69766;51.476;5.704;2023-06-19T08:16:18;27.30;53.00
80426;DHT22;69766;51.476;5.704;2023-06-19T08:18:44;26.90;53.40
80426;DHT22;69766;51.476;5.704;2023-06-19T08:21:10;27.00;53.90
80426;DHT22;69766;51.476;5.704;2023-06-19T08:23:36;27.00;52.10
80426;DHT22;69766;51.476;5.704;2023-06-19T08:26:03;27.10;52.90
80426;DHT22;69766;51.476;5.704;2023-06-19T08:28:33;27.50;52.70
80426;DHT22;69766;51.476;5.704;2023-06-19T08:30:58;27.70;51.80
80426;DHT22;69766;51.476;5.704;2023-06-19T08:33:24;28.00;51.60
80426;DHT22;69766;51.476;5.704;2023-06-19T08:35:50;28.70;49.70
80426;DHT22;69766;51.476;5.704;2023-06-19T08:38:15;27.90;49.70
80426;DHT22;69766;51.476;5.704;2023-06-19T08:40:44;27.80;50.30
80426;DHT22;69766;51.476;5.704;2023-06-19T08:43:11;27.30;51.80
80426;DHT22;69766;51.476;5.704;2023-06-19T08:45:36;26.40;53.70
80426;DHT22;69766;51.476;5.704;2023-06-19T08:48:03;26.20;55.40
80426;DHT22;69766;51.476;5.704;2023-06-19T08:50:33;26.20;55.50
80426;DHT22;69766;51.476;5.704;2023-06-19T08:52:59;26.10;55.80
80426;DHT22;69766;51.476;5.704;2023-06-19T08:55:25;26.90;53.90
80426;DHT22;69766;51.476;5.704;2023-06-19T08:57:51;27.60;53.30
80426;DHT22;69766;51.476;5.704;2023-06-19T09:00:29;29.30;49.80
80426;DHT22;69766;51.476;5.704;2023-06-19T09:03:02;29.30;48.80
80426;DHT22;69766;51.476;5.704;2023-06-19T09:05:28;29.00;48.80
80426;DHT22;69766;51.476;5.704;2023-06-19T09:07:57;29.20;48.90
80426;DHT22;69766;51.476;5.704;2023-06-19T09:10:23;29.30;47.60
80426;DHT22;69766;51.476;5.704;2023-06-19T09:13:03;29.30;47.50
80426;DHT22;69766;51.476;5.704;2023-06-19T09:15:30;29.40;47.80
80426;DHT22;69766;51.476;5.704;2023-06-19T09:18:09;29.80;47.50
80426;DHT22;69766;51.476;5.704;2023-06-19T09:20:38;29.90;46.10
80426;DHT22;69766;51.476;5.704;2023-06-19T09:23:07;29.30;47.40
80426;DHT22;69766;51.476;5.704;2023-06-19T09:25:44;28.90;48.90
80426;DHT22;69766;51.476;5.704;2023-06-19T09:28:23;29.80;46.80
80426;DHT22;69766;51.476;5.704;2023-06-19T09:31:00;30.10;46.10
80426;DHT22;69766;51.476;5.704;2023-06-19T09:33:31;30.30;45.50
80426;DHT22;69766;51.476;5.704;2023-06-19T09:35:58;31.20;44.30
80426;DHT22;69766;51.476;5.704;2023-06-19T09:38:25;30.30;44.80
80426;DHT22;69766;51.476;5.704;2023-06-19T09:40:52;30.70;45.00
80426;DHT22;69766;51.476;5.704;2023-06-19T09:43:28;31.30;42.70
80426;DHT22;69766;51.476;5.704;2023-06-19T09:45:56;30.40;44.30
80426;DHT22;69766;51.476;5.704;2023-06-19T09:48:27;31.10;43.40
80426;DHT22;69766;51.476;5.704;2023-06-19T09:53:45;30.30;45.70
80426;DHT22;69766;51.476;5.704;2023-06-19T09:56:12;30.60;44.60
80426;DHT22;69766;51.476;5.704;2023-06-19T09:58:39;30.40;44.10
80426;DHT22;69766;51.476;5.704;2023-06-19T10:01:06;30.00;44.70
80426;DHT22;69766;51.476;5.704;2023-06-19T10:03:33;29.30;45.90
80426;DHT22;69766;51.476;5.704;2023-06-19T10:06:22;28.80;46.30
80426;DHT22;69766;51.476;5.704;2023-06-19T10:08:48;29.20;45.70
80426;DHT22;69766;51.476;5.704;2023-06-19T10:11:16;29.40;45.60
80426;DHT22;69766;51.476;5.704;2023-06-19T10:13:42;29.70;44.80
80426;DHT22;69766;51.476;5.704;2023-06-19T10:16:19;30.60;42.70
80426;DHT22;69766;51.476;5.704;2023-06-19T10:18:46;31.70;41.80
80426;DHT22;69766;51.476;5.704;2023-06-19T10:21:22;32.60;39.90
80426;DHT22;69766;51.476;5.704;2023-06-19T10:23:55;33.10;39.20
80426;DHT22;69766;51.476;5.704;2023-06-19T10:26:33;32.60;40.00
80426;DHT22;69766;51.476;5.704;2023-06-19T10:28:58;32.30;40.40
80426;DHT22;69766;51.476;5.704;2023-06-19T10:31:24;31.70;41.20
80426;DHT22;69766;51.476;5.704;2023-06-19T10:33:50;31.90;41.20
80426;DHT22;69766;51.476;5.704;2023-06-19T10:36:17;32.00;40.60
80426;DHT22;69766;51.476;5.704;2023-06-19T10:38:45;31.50;40.90
80426;DHT22;69766;51.476;5.704;2023-06-19T10:41:20;30.80;41.80
80426;DHT22;69766;51.476;5.704;2023-06-19T10:44:02;30.40;42.60
80426;DHT22;69766;51.476;5.704;2023-06-19T10:46:34;29.80;43.70
80426;DHT22;69766;51.476;5.704;2023-06-19T10:49:05;30.80;42.60
80426;DHT22;69766;51.476;5.704;2023-06-19T10:51:34;31.30;42.00
80426;DHT22;69766;51.476;5.704;2023-06-19T10:54:00;31.10;42.20
80426;DHT22;69766;51.476;5.704;2023-06-19T10:56:26;32.20;39.80
80426;DHT22;69766;51.476;5.704;2023-06-19T10:59:03;32.10;39.30
80426;DHT22;69766;51.476;5.704;2023-06-19T11:01:39;31.60;40.40
80426;DHT22;69766;51.476;5.704;2023-06-19T11:04:08;30.30;41.50
80426;DHT22;69766;51.476;5.704;2023-06-19T11:06:37;30.40;42.50
80426;DHT22;69766;51.476;5.704;2023-06-19T11:09:05;31.70;40.80
80426;DHT22;69766;51.476;5.704;2023-06-19T11:11:38;32.90;39.20
80426;DHT22;69766;51.476;5.704;2023-06-19T11:14:04;32.30;39.60
80426;DHT22;69766;51.476;5.704;2023-06-19T11:16:30;33.00;38.30
80426;DHT22;69766;51.476;5.704;2023-06-19T11:18:57;33.60;36.80
80426;DHT22;69766;51.476;5.704;2023-06-19T11:21:30;33.20;36.50
80426;DHT22;69766;51.476;5.704;2023-06-19T11:23:57;32.70;35.50
80426;DHT22;69766;51.476;5.704;2023-06-19T11:26:25;32.70;37.20
80426;DHT22;69766;51.476;5.704;2023-06-19T11:28:50;32.80;36.50
80426;DHT22;69766;51.476;5.704;2023-06-19T11:31:16;33.60;35.90
80426;DHT22;69766;51.476;5.704;2023-06-19T11:33:42;33.40;35.80
80426;DHT22;69766;51.476;5.704;2023-06-19T11:36:08;33.60;35.40
80426;DHT22;69766;51.476;5.704;2023-06-19T11:38:36;34.60;34.80
80426;DHT22;69766;51.476;5.704;2023-06-19T11:41:03;34.10;35.00
80426;DHT22;69766;51.476;5.704;2023-06-19T11:43:34;33.80;36.00
80426;DHT22;69766;51.476;5.704;2023-06-19T11:46:05;33.40;36.20
80426;DHT22;69766;51.476;5.704;2023-06-19T11:48:31;33.20;35.30
80426;DHT22;69766;51.476;5.704;2023-06-19T11:50:57;33.10;36.30
80426;DHT22;69766;51.476;5.704;2023-06-19T11:53:24;32.20;36.10
80426;DHT22;69766;51.476;5.704;2023-06-19T11:55:50;32.30;35.70
80426;DHT22;69766;51.476;5.704;2023-06-19T11:58:19;32.20;35.50
80426;DHT22;69766;51.476;5.704;2023-06-19T12:00:46;32.50;34.70
80426;DHT22;69766;51.476;5.704;2023-06-19T12:03:12;33.10;34.80
80426;DHT22;69766;51.476;5.704;2023-06-19T12:05:38;33.40;35.50
80426;DHT22;69766;51.476;5.704;2023-06-19T12:08:04;33.60;35.00
80426;DHT22;69766;51.476;5.704;2023-06-19T12:10:30;34.00;34.40
80426;DHT22;69766;51.476;5.704;2023-06-19T12:12:56;33.60;32.80
80426;DHT22;69766;51.476;5.704;2023-06-19T12:15:22;33.40;34.40
80426;DHT22;69766;51.476;5.704;2023-06-19T12:17:48;33.80;33.90
80426;DHT22;69766;51.476;5.704;2023-06-19T12:20:14;33.80;33.30
80426;DHT22;69766;51.476;5.704;2023-06-19T12:22:40;33.80;33.60
80426;DHT22;69766;51.476;5.704;2023-06-19T12:25:06;33.90;33.90
80426;DHT22;69766;51.476;5.704;2023-06-19T12:27:32;33.80;35.10
80426;DHT22;69766;51.476;5.704;2023-06-19T12:29:58;33.20;34.10
80426;DHT22;69766;51.476;5.704;2023-06-19T12:32:24;33.70;34.00
80426;DHT22;69766;51.476;5.704;2023-06-19T12:34:50;34.20;32.30
80426;DHT22;69766;51.476;5.704;2023-06-19T12:37:20;34.60;32.30
80426;DHT22;69766;51.476;5.704;2023-06-19T12:39:47;35.20;32.50
80426;DHT22;69766;51.476;5.704;2023-06-19T12:42:13;34.30;32.80
80426;DHT22;69766;51.476;5.704;2023-06-19T12:44:42;33.20;33.90
80426;DHT22;69766;51.476;5.704;2023-06-19T12:47:10;33.80;34.00
80426;DHT22;69766;51.476;5.704;2023-06-19T12:49:36;34.10;33.30
80426;DHT22;69766;51.476;5.704;2023-06-19T12:52:02;34.30;32.10
80426;DHT22;69766;51.476;5.704;2023-06-19T12:54:28;34.50;32.50
80426;DHT22;69766;51.476;5.704;2023-06-19T12:56:54;33.90;33.00
80426;DHT22;69766;51.476;5.704;2023-06-19T12:59:20;34.00;32.10
80426;DHT22;69766;51.476;5.704;2023-06-19T13:01:46;34.50;31.20
80426;DHT22;69766;51.476;5.704;2023-06-19T13:04:12;34.30;32.00
80426;DHT22;69766;51.476;5.704;2023-06-19T13:06:38;33.70;32.40
80426;DHT22;69766;51.476;5.704;2023-06-19T13:09:06;34.00;32.70
80426;DHT22;69766;51.476;5.704;2023-06-19T13:11:32;33.60;33.40
80426;DHT22;69766;51.476;5.704;2023-06-19T13:14:02;34.40;32.20
80426;DHT22;69766;51.476;5.704;2023-06-19T13:16:30;35.30;30.70
80426;DHT22;69766;51.476;5.704;2023-06-19T13:18:55;35.70;30.10
80426;DHT22;69766;51.476;5.704;2023-06-19T13:21:21;34.80;30.60
80426;DHT22;69766;51.476;5.704;2023-06-19T13:23:46;34.60;30.30
80426;DHT22;69766;51.476;5.704;2023-06-19T13:26:14;33.80;29.70
80426;DHT22;69766;51.476;5.704;2023-06-19T13:28:40;33.60;29.90
80426;DHT22;69766;51.476;5.704;2023-06-19T13:31:06;32.90;31.80
80426;DHT22;69766;51.476;5.704;2023-06-19T13:33:31;33.60;31.50
80426;DHT22;69766;51.476;5.704;2023-06-19T13:35:57;33.60;30.40
80426;DHT22;69766;51.476;5.704;2023-06-19T13:38:23;34.60;29.40
80426;DHT22;69766;51.476;5.704;2023-06-19T13:40:49;35.40;29.80
80426;DHT22;69766;51.476;5.704;2023-06-19T13:43:15;35.00;30.60
80426;DHT22;69766;51.476;5.704;2023-06-19T13:45:41;34.80;30.70
80426;DHT22;69766;51.476;5.704;2023-06-19T13:48:07;35.10;30.40
80426;DHT22;69766;51.476;5.704;2023-06-19T13:50:33;34.60;31.30
80426;DHT22;69766;51.476;5.704;2023-06-19T13:53:00;34.70;30.80
80426;DHT22;69766;51.476;5.704;2023-06-19T13:55:26;34.70;30.90
80426;DHT22;69766;51.476;5.704;2023-06-19T13:57:51;35.00;30.00
80426;DHT22;69766;51.476;5.704;2023-06-19T14:00:18;35.00;29.50
80426;DHT22;69766;51.476;5.704;2023-06-19T14:02:44;34.70;29.80
80426;DHT22;69766;51.476;5.704;2023-06-19T14:05:10;34.70;29.60
80426;DHT22;69766;51.476;5.704;2023-06-19T14:07:36;34.80;29.70
80426;DHT22;69766;51.476;5.704;2023-06-19T14:10:04;34.60;30.10
80426;DHT22;69766;51.476;5.704;2023-06-19T14:12:30;35.30;29.40
80426;DHT22;69766;51.476;5.704;2023-06-19T14:14:56;35.10;30.40
80426;DHT22;69766;51.476;5.704;2023-06-19T14:17:22;34.30;30.10
80426;DHT22;69766;51.476;5.704;2023-06-19T14:19:49;34.10;30.50
80426;DHT22;69766;51.476;5.704;2023-06-19T14:22:16;33.70;30.70
80426;DHT22;69766;51.476;5.704;2023-06-19T14:24:42;33.90;31.10
80426;DHT22;69766;51.476;5.704;2023-06-19T14:27:08;34.40;30.20
80426;DHT22;69766;51.476;5.704;2023-06-19T14:29:33;34.20;30.70
80426;DHT22;69766;51.476;5.704;2023-06-19T14:31:59;33.80;31.20
80426;DHT22;69766;51.476;5.704;2023-06-19T14:34:25;33.70;31.20
80426;DHT22;69766;51.476;5.704;2023-06-19T14:36:50;33.10;31.20
80426;DHT22;69766;51.476;5.704;2023-06-19T14:39:16;32.60;32.40
80426;DHT22;69766;51.476;5.704;2023-06-19T14:41:42;32.90;32.20
80426;DHT22;69766;51.476;5.704;2023-06-19T14:44:07;32.50;32.50
80426;DHT22;69766;51.476;5.704;2023-06-19T14:46:33;32.80;32.00
80426;DHT22;69766;51.476;5.704;2023-06-19T14:49:07;32.40;32.90
80426;DHT22;69766;51.476;5.704;2023-06-19T14:51:33;32.80;31.50
80426;DHT22;69766;51.476;5.704;2023-06-19T14:53:59;33.20;31.70
80426;DHT22;69766;51.476;5.704;2023-06-19T14:56:25;32.50;32.00
80426;DHT22;69766;51.476;5.704;2023-06-19T14:58:51;32.30;32.50
80426;DHT22;69766;51.476;5.704;2023-06-19T15:01:16;32.10;31.40
80426;DHT22;69766;51.476;5.704;2023-06-19T15:03:42;32.00;32.20
80426;DHT22;69766;51.476;5.704;2023-06-19T15:06:08;32.20;31.90
80426;DHT22;69766;51.476;5.704;2023-06-19T15:08:33;32.90;32.10
80426;DHT22;69766;51.476;5.704;2023-06-19T15:11:01;33.00;30.90
80426;DHT22;69766;51.476;5.704;2023-06-19T15:13:30;32.70;31.80
80426;DHT22;69766;51.476;5.704;2023-06-19T15:15:56;32.20;32.80
80426;DHT22;69766;51.476;5.704;2023-06-19T15:18:23;32.20;32.90
80426;DHT22;69766;51.476;5.704;2023-06-19T15:20:49;32.00;33.20
80426;DHT22;69766;51.476;5.704;2023-06-19T15:23:15;32.20;33.40
80426;DHT22;69766;51.476;5.704;2023-06-19T15:25:41;32.10;32.90
80426;DHT22;69766;51.476;5.704;2023-06-19T15:28:06;32.00;32.60
80426;DHT22;69766;51.476;5.704;2023-06-19T15:30:32;32.00;33.00
80426;DHT22;69766;51.476;5.704;2023-06-19T15:32:58;31.50;33.60